Time;durP1;ratioP1;P1;durP2;ratioP2;P2;SDS_P1;SDS_P2;PMS_P1;PMS_P2;Temp;Humidity;BMP_temperature;BMP_pressure;BME280_temperature;BME280_humidity;BME280_pressure;Samples;Min_cycle;Max_cycle;Signal;HPM_P1;HPM_P2
2022/10/23 00:01:39;;;;;;;1.60;1.00;;;14.40;98.20;;;;;;5026559;28;20852;-77
2022/10/23 00:04:08;;;;;;;1.60;1.00;;;14.40;98.20;;;;;;5034629;28;20486;-78
2022/10/23 00:06:36;;;;;;;1.60;1.00;;;14.30;98.20;;;;;;5026074;28;20576;-78
2022/10/23 00:09:05;;;;;;;1.60;1.00;;;14.30;98.20;;;;;;5049920;28;20482;-77
2022/10/23 00:11:51;;;;;;;1.60;1.00;;;14.30;98.20;;;;;;5033223;28;20870;-78
2022/10/23 00:14:20;;;;;;;1.60;1.00;;;14.30;98.20;;;;;;5044081;28;20464;-78
2022/10/23 00:16:47;;;;;;;1.60;0.90;;;14.30;98.20;;;;;;5032461;28;20502;-78
2022/10/23 00:19:14;;;;;;;1.60;1.00;;;14.30;98.20;;;;;;5042056;28;21190;-78
2022/10/23 00:21:41;;;;;;;1.60;1.10;;;14.30;98.20;;;;;;5040803;28;20504;-77
2022/10/23 00:24:08;;;;;;;1.60;1.00;;;14.30;98.20;;;;;;5048947;28;20963;-77
2022/10/23 00:26:39;;;;;;;1.60;1.00;;;14.30;98.20;;;;;;5032267;28;20779;-77
2022/10/23 00:29:07;;;;;;;1.70;1.33;;;14.30;98.20;;;;;;5040934;28;20458;-77
2022/10/23 00:31:35;;;;;;;1.60;1.10;;;14.30;98.20;;;;;;5031695;28;21068;-78
2022/10/23 00:34:06;;;;;;;1.60;1.00;;;14.30;98.20;;;;;;5040280;28;20543;-78
2022/10/23 00:36:33;;;;;;;1.60;1.00;;;14.30;98.20;;;;;;5039264;28;20827;-78
2022/10/23 00:39:01;;;;;;;1.60;1.00;;;14.30;98.20;;;;;;5049670;28;20524;-77
2022/10/23 00:41:31;;;;;;;1.60;1.00;;;14.30;98.20;;;;;;5033275;28;20483;-77
2022/10/23 00:44:06;;;;;;;1.60;1.00;;;14.30;98.20;;;;;;5038224;28;20450;-78
2022/10/23 00:46:34;;;;;;;1.60;1.10;;;14.30;98.20;;;;;;5032715;28;21022;-78
2022/10/23 00:49:03;;;;;;;1.60;1.00;;;14.30;98.20;;;;;;5033801;28;20447;-77
2022/10/23 00:51:35;;;;;;;1.60;1.00;;;14.30;98.20;;;;;;5037239;28;20494;-78
2022/10/23 00:54:03;;;;;;;1.60;1.00;;;14.30;98.20;;;;;;5051699;28;20457;-78
2022/10/23 00:56:34;;;;;;;1.93;1.67;;;14.20;98.20;;;;;;5048446;28;20868;-77
2022/10/23 00:59:03;;;;;;;1.60;1.00;;;14.20;98.20;;;;;;5039229;28;20564;-77
2022/10/23 01:01:30;;;;;;;1.60;1.10;;;14.20;98.20;;;;;;5039180;28;20898;-78
2022/10/23 01:03:57;;;;;;;1.60;1.00;;;14.20;98.20;;;;;;5039701;28;20558;-78
2022/10/23 01:06:34;;;;;;;1.60;1.00;;;14.20;98.20;;;;;;5023973;28;21077;-77
2022/10/23 01:09:09;;;;;;;1.60;1.00;;;14.20;98.20;;;;;;5050722;28;20795;-77
2022/10/23 01:11:42;;;;;;;1.60;1.00;;;14.10;98.20;;;;;;5035898;28;20897;-77
2022/10/23 01:14:20;;;;;;;1.60;1.00;;;14.10;98.20;;;;;;5045214;28;20621;-77
2022/10/23 01:16:55;;;;;;;1.60;1.00;;;14.10;98.20;;;;;;5036207;28;20482;-77
2022/10/23 01:19:42;;;;;;;1.60;1.00;;;14.10;98.20;;;;;;5046889;28;20875;-77
2022/10/23 01:22:22;;;;;;;1.60;1.00;;;14.10;98.20;;;;;;5050137;28;20486;-77
2022/10/23 01:24:56;;;;;;;1.60;1.00;;;14.10;98.20;;;;;;5070897;28;20461;-77
2022/10/23 01:27:27;;;;;;;1.60;1.00;;;14.00;98.20;;;;;;5052279;28;20511;-78
2022/10/23 01:30:04;;;;;;;1.60;1.00;;;14.00;98.20;;;;;;5075066;28;20469;-78
2022/10/23 01:32:39;;;;;;;1.60;1.00;;;14.00;98.20;;;;;;5064025;28;20484;-77
2022/10/23 01:35:13;;;;;;;1.60;1.00;;;14.00;98.20;;;;;;5076759;28;20552;-77
2022/10/23 01:37:44;;;;;;;1.60;1.10;;;14.00;98.20;;;;;;5063841;28;20478;-78
2022/10/23 01:40:20;;;;;;;1.60;1.00;;;14.00;98.20;;;;;;5077869;28;20481;-78
2022/10/23 01:42:52;;;;;;;1.60;1.00;;;14.10;98.20;;;;;;5028129;28;20485;-76
2022/10/23 01:45:25;;;;;;;1.60;1.00;;;14.00;98.20;;;;;;5070758;28;20462;-76
2022/10/23 01:47:53;;;;;;;1.60;1.00;;;14.00;98.20;;;;;;5051028;28;20573;-76
2022/10/23 01:50:23;;;;;;;1.60;1.00;;;14.00;98.20;;;;;;5072334;28;20736;-76
2022/10/23 01:52:50;;;;;;;1.60;1.00;;;14.00;98.20;;;;;;5048173;28;20478;-76
2022/10/23 01:55:18;;;;;;;1.60;1.00;;;14.00;98.20;;;;;;5072405;28;20464;-77
2022/10/23 01:57:47;;;;;;;1.60;1.00;;;14.00;98.20;;;;;;5045678;28;20482;-77
2022/10/23 02:00:19;;;;;;;1.60;1.00;;;14.00;98.20;;;;;;5071307;28;20990;-76
2022/10/23 02:02:47;;;;;;;1.60;1.00;;;14.00;98.20;;;;;;5052811;28;20501;-77
2022/10/23 02:05:18;;;;;;;1.60;1.10;;;14.00;98.20;;;;;;5074345;28;20453;-78
2022/10/23 02:07:46;;;;;;;1.60;1.00;;;14.00;98.20;;;;;;5044401;28;20505;-76
2022/10/23 02:10:14;;;;;;;1.60;1.00;;;14.00;98.20;;;;;;5072451;28;20535;-77
2022/10/23 02:12:50;;;;;;;1.60;1.00;;;14.00;98.20;;;;;;5060941;28;20493;-77
2022/10/23 02:15:26;;;;;;;1.60;1.00;;;14.00;98.20;;;;;;5072862;28;20475;-77
2022/10/23 02:18:03;;;;;;;1.60;1.10;;;14.00;98.20;;;;;;5043170;28;20478;-76
2022/10/23 02:20:39;;;;;;;1.60;1.00;;;14.00;98.20;;;;;;5066341;28;20549;-77
2022/10/23 02:23:15;;;;;;;1.60;1.00;;;14.00;98.20;;;;;;5035393;28;20502;-77
2022/10/23 02:25:50;;;;;;;1.60;1.10;;;14.00;98.20;;;;;;5072993;28;20670;-77
2022/10/23 02:28:23;;;;;;;1.60;1.00;;;14.00;98.20;;;;;;5024494;28;20470;-77
2022/10/23 02:30:52;;;;;;;1.60;1.00;;;14.00;98.20;;;;;;5041150;28;20478;-77
2022/10/23 02:33:20;;;;;;;1.60;1.00;;;14.00;98.20;;;;;;5014902;28;20670;-77
2022/10/23 02:35:48;;;;;;;1.60;1.00;;;14.00;98.20;;;;;;5030068;28;20495;-77
2022/10/23 02:38:34;;;;;;;1.60;1.20;;;14.00;98.20;;;;;;5047959;28;20562;-77
2022/10/23 02:41:17;;;;;;;1.60;1.10;;;14.00;98.20;;;;;;5021631;28;21062;-77
2022/10/23 02:43:53;;;;;;;1.60;1.07;;;14.00;98.20;;;;;;5049328;28;20454;-77
2022/10/23 02:46:28;;;;;;;1.60;1.00;;;14.00;98.20;;;;;;5040401;28;20789;-77
2022/10/23 02:49:04;;;;;;;1.60;1.00;;;14.00;98.20;;;;;;5051624;28;20492;-78
2022/10/23 02:51:44;;;;;;;1.60;1.00;;;14.00;98.20;;;;;;5043478;28;20505;-78
2022/10/23 02:54:18;;;;;;;1.60;1.00;;;14.00;98.20;;;;;;5039805;28;20486;-78
2022/10/23 02:56:53;;;;;;;1.60;1.00;;;14.00;98.20;;;;;;5033639;28;20483;-78
2022/10/23 02:59:24;;;;;;;1.60;1.00;;;14.00;98.20;;;;;;5044433;28;20486;-77
2022/10/23 03:01:58;;;;;;;1.60;1.10;;;14.00;98.20;;;;;;5042447;28;20486;-78
2022/10/23 03:04:28;;;;;;;1.60;1.00;;;14.00;98.20;;;;;;5052698;28;20462;-77
2022/10/23 03:06:56;;;;;;;1.60;1.00;;;14.10;98.20;;;;;;5032246;28;20860;-78
2022/10/23 03:09:23;;;;;;;1.60;1.00;;;14.10;98.20;;;;;;5043761;28;20546;-77
2022/10/23 03:11:50;;;;;;;1.60;1.10;;;14.10;98.20;;;;;;5040189;28;20947;-78
2022/10/23 03:14:17;;;;;;;3.23;2.13;;;14.10;98.20;;;;;;5040981;28;20813;-77
2022/10/23 03:16:44;;;;;;;1.57;1.00;;;14.10;98.20;;;;;;5033390;28;20517;-77
2022/10/23 03:19:13;;;;;;;1.60;1.07;;;14.10;98.20;;;;;;5043287;28;20490;-77
2022/10/23 03:21:40;;;;;;;1.60;1.00;;;14.10;98.20;;;;;;5043555;28;20540;-78
2022/10/23 03:24:07;;;;;;;1.60;1.00;;;14.10;98.20;;;;;;5061787;28;20501;-77
2022/10/23 03:26:34;;;;;;;1.60;1.10;;;14.10;98.20;;;;;;5047329;28;20483;-77
2022/10/23 03:29:02;;;;;;;1.60;1.00;;;14.10;98.20;;;;;;5041112;28;20463;-77
2022/10/23 03:31:29;;;;;;;1.60;1.00;;;14.10;98.20;;;;;;5040261;28;20566;-77
2022/10/23 03:33:56;;;;;;;1.60;1.00;;;14.10;98.20;;;;;;5040264;28;20479;-77
2022/10/23 03:36:24;;;;;;;1.60;1.00;;;14.10;98.20;;;;;;5025525;28;20481;-78
2022/10/23 03:38:52;;;;;;;1.60;1.00;;;14.10;98.20;;;;;;5048947;28;20482;-78
2022/10/23 03:41:19;;;;;;;1.60;1.00;;;14.10;98.20;;;;;;5034645;28;20490;-77
2022/10/23 03:43:46;;;;;;;1.60;1.17;;;14.10;98.20;;;;;;5035007;28;20492;-77
2022/10/23 03:46:13;;;;;;;1.60;1.10;;;14.10;98.20;;;;;;5036168;28;20529;-77
2022/10/23 03:48:40;;;;;;;1.60;1.00;;;14.10;98.20;;;;;;5038157;28;20853;-78
2022/10/23 03:51:08;;;;;;;1.60;1.00;;;14.10;98.20;;;;;;5040752;28;20525;-77
2022/10/23 03:53:36;;;;;;;1.60;1.00;;;14.00;98.20;;;;;;5048478;28;20541;-77
2022/10/23 03:56:05;;;;;;;1.60;1.00;;;14.00;98.20;;;;;;5038502;28;20458;-77
2022/10/23 03:58:32;;;;;;;1.60;1.10;;;14.00;98.20;;;;;;5035983;28;20466;-77
2022/10/23 04:01:00;;;;;;;1.60;1.07;;;14.00;98.20;;;;;;5036067;28;20545;-78
2022/10/23 04:03:27;;;;;;;1.60;1.10;;;14.00;98.20;;;;;;5034287;28;20562;-78
2022/10/23 04:05:54;;;;;;;1.60;1.00;;;14.10;98.20;;;;;;5039847;28;20951;-77
2022/10/23 04:08:21;;;;;;;1.60;1.00;;;14.10;98.20;;;;;;5033439;28;20466;-78
2022/10/23 04:10:50;;;;;;;1.60;1.00;;;14.10;98.20;;;;;;5043998;28;20840;-78
2022/10/23 04:13:17;;;;;;;1.60;1.00;;;14.10;98.20;;;;;;5045709;28;20885;-78
2022/10/23 04:15:51;;;;;;;1.60;1.10;;;14.10;98.20;;;;;;5042459;28;20931;-78
2022/10/23 04:18:19;;;;;;;1.60;1.00;;;14.10;98.20;;;;;;5022780;28;20983;-79
2022/10/23 04:20:48;;;;;;;1.60;1.10;;;14.20;98.20;;;;;;5058532;28;20572;-79
2022/10/23 04:23:16;;;;;;;1.60;1.27;;;14.20;98.20;;;;;;5048282;28;20466;-77
2022/10/23 04:25:43;;;;;;;1.57;1.00;;;14.20;98.20;;;;;;5074667;28;20460;-77
2022/10/23 04:28:12;;;;;;;1.60;1.00;;;14.20;98.20;;;;;;5044555;28;20549;-79
2022/10/23 04:30:40;;;;;;;1.60;1.00;;;14.20;98.20;;;;;;5074483;28;20465;-78
2022/10/23 04:33:07;;;;;;;1.60;1.00;;;14.20;98.20;;;;;;5050033;28;20479;-78
2022/10/23 04:35:34;;;;;;;1.60;1.00;;;14.20;98.20;;;;;;5075755;28;20849;-77
2022/10/23 04:38:02;;;;;;;1.60;1.03;;;14.20;98.20;;;;;;5060001;28;20482;-78
2022/10/23 04:40:29;;;;;;;1.60;1.00;;;14.20;98.20;;;;;;5066685;28;20489;-78
2022/10/23 04:42:56;;;;;;;1.60;1.00;;;14.20;98.20;;;;;;5041528;28;20489;-77
2022/10/23 04:45:24;;;;;;;1.60;1.00;;;14.20;98.20;;;;;;5073936;28;20457;-78
2022/10/23 04:47:52;;;;;;;1.60;1.00;;;14.20;98.20;;;;;;5045232;28;20839;-78
2022/10/23 04:50:19;;;;;;;1.60;1.00;;;14.20;98.20;;;;;;5072600;28;20520;-77
2022/10/23 04:52:47;;;;;;;1.60;1.00;;;14.20;98.20;;;;;;5053956;28;20490;-78
2022/10/23 04:55:14;;;;;;;1.60;1.00;;;14.20;98.20;;;;;;5072980;28;20522;-77
2022/10/23 04:57:42;;;;;;;1.60;1.00;;;14.10;98.20;;;;;;5042914;28;20841;-78
2022/10/23 05:00:13;;;;;;;1.60;1.00;;;14.10;98.20;;;;;;5071901;28;20720;-78
2022/10/23 05:02:41;;;;;;;1.60;1.00;;;14.10;98.20;;;;;;5046254;28;20485;-78
2022/10/23 05:05:09;;;;;;;1.60;1.00;;;14.10;98.20;;;;;;5075819;28;20465;-77
2022/10/23 05:07:37;;;;;;;1.57;1.00;;;14.10;98.20;;;;;;5045020;28;21004;-77
2022/10/23 05:10:04;;;;;;;1.60;1.00;;;14.10;98.20;;;;;;5062900;28;20489;-78
2022/10/23 05:12:32;;;;;;;1.60;1.10;;;14.10;98.20;;;;;;5042462;28;20479;-78
2022/10/23 05:14:59;;;;;;;1.60;1.00;;;14.10;98.20;;;;;;5066609;28;20458;-78
2022/10/23 05:17:29;;;;;;;1.60;1.00;;;14.10;98.20;;;;;;5050570;28;20482;-78
2022/10/23 05:20:00;;;;;;;1.60;1.00;;;14.10;98.20;;;;;;5070009;28;20973;-78
2022/10/23 05:22:32;;;;;;;1.60;1.00;;;14.10;98.20;;;;;;5026597;28;20542;-78
2022/10/23 05:25:01;;;;;;;1.60;1.00;;;14.00;98.20;;;;;;5054294;28;20548;-77
2022/10/23 05:27:28;;;;;;;1.60;0.97;;;14.10;98.20;;;;;;5017157;28;20816;-77
2022/10/23 05:29:55;;;;;;;1.60;1.00;;;14.00;98.20;;;;;;5040875;28;20581;-78
2022/10/23 05:32:24;;;;;;;1.60;1.00;;;14.00;98.20;;;;;;5025120;28;20916;-77
2022/10/23 05:34:51;;;;;;;1.60;1.00;;;14.00;98.20;;;;;;5047484;28;20458;-77
2022/10/23 05:37:21;;;;;;;1.60;1.00;;;14.00;98.20;;;;;;5037837;28;20474;-78
2022/10/23 05:39:48;;;;;;;1.60;1.00;;;14.00;98.20;;;;;;5050568;28;21025;-77
2022/10/23 05:42:15;;;;;;;1.60;1.10;;;14.00;98.20;;;;;;5028500;28;20520;-78
2022/10/23 05:44:42;;;;;;;1.60;1.00;;;14.00;98.20;;;;;;5028301;28;20471;-78
2022/10/23 05:47:09;;;;;;;1.57;1.00;;;14.00;98.20;;;;;;5021422;28;20509;-78
2022/10/23 05:49:37;;;;;;;1.60;1.07;;;14.00;98.20;;;;;;5046448;28;20481;-77
2022/10/23 05:52:04;;;;;;;1.60;0.90;;;14.00;98.20;;;;;;5030433;28;20471;-78
2022/10/23 05:54:33;;;;;;;1.60;0.97;;;14.00;98.20;;;;;;5039727;28;21475;-78
2022/10/23 05:57:00;;;;;;;1.60;1.10;;;14.10;98.20;;;;;;5040050;28;20486;-78
2022/10/23 05:59:27;;;;;;;1.60;1.00;;;14.10;98.20;;;;;;5047525;28;20500;-79
2022/10/23 06:01:54;;;;;;;1.60;1.03;;;14.10;98.20;;;;;;5031601;28;20483;-79
2022/10/23 06:04:22;;;;;;;1.60;1.00;;;14.20;98.20;;;;;;5039453;28;20458;-78
2022/10/23 06:06:49;;;;;;;1.60;1.00;;;14.20;98.20;;;;;;5030437;28;20921;-78
2022/10/23 06:09:17;;;;;;;1.60;0.90;;;14.20;98.20;;;;;;5048671;28;20989;-79
2022/10/23 06:11:45;;;;;;;1.60;1.00;;;14.20;98.20;;;;;;5037064;28;20495;-79
2022/10/23 06:14:12;;;;;;;1.60;1.00;;;14.20;98.20;;;;;;5046892;28;20559;-80
2022/10/23 06:16:40;;;;;;;1.60;1.00;;;14.20;98.20;;;;;;5038190;28;20684;-78
2022/10/23 06:19:10;;;;;;;1.60;1.00;;;14.20;98.20;;;;;;5048031;28;20489;-79
2022/10/23 06:21:38;;;;;;;1.60;1.00;;;14.10;98.20;;;;;;5044549;28;20499;-79
2022/10/23 06:24:06;;;;;;;1.60;1.20;;;14.20;98.20;;;;;;5055523;28;20744;-80
2022/10/23 06:26:34;;;;;;;1.60;1.00;;;14.10;98.20;;;;;;5039430;28;20494;-80
2022/10/23 06:29:04;;;;;;;1.60;1.00;;;14.10;98.20;;;;;;5049137;28;20831;-81
2022/10/23 06:31:32;;;;;;;1.60;1.00;;;14.10;98.20;;;;;;5042022;28;20481;-79
2022/10/23 06:34:03;;;;;;;1.60;1.00;;;14.10;98.20;;;;;;5051615;28;20655;-81
2022/10/23 06:36:34;;;;;;;1.60;0.90;;;14.10;98.20;;;;;;5039763;28;20548;-80
2022/10/23 06:39:01;;;;;;;1.60;1.10;;;14.10;98.20;;;;;;5052864;28;20462;-79
2022/10/23 06:41:35;;;;;;;1.60;1.00;;;14.10;98.20;;;;;;5039232;28;20510;-79
2022/10/23 06:44:04;;;;;;;1.60;1.10;;;14.20;98.20;;;;;;5054069;28;20473;-79
2022/10/23 06:46:35;;;;;;;1.60;1.00;;;14.20;98.20;;;;;;5035240;28;20563;-78
2022/10/23 06:49:02;;;;;;;1.60;1.00;;;14.20;98.20;;;;;;5038048;28;20466;-79
2022/10/23 06:51:30;;;;;;;1.60;1.00;;;14.20;98.20;;;;;;5035505;28;20491;-79
2022/10/23 06:53:57;;;;;;;1.60;1.00;;;14.20;98.20;;;;;;5037002;28;20466;-78
2022/10/23 06:56:28;;;;;;;1.60;1.00;;;14.30;98.20;;;;;;5038965;28;20579;-77
2022/10/23 06:58:55;;;;;;;1.60;1.20;;;14.30;98.20;;;;;;5047350;28;20517;-78
2022/10/23 07:01:24;;;;;;;1.60;1.00;;;14.40;98.20;;;;;;5049601;28;20488;-79
2022/10/23 07:03:51;;;;;;;1.60;1.00;;;14.40;98.20;;;;;;5055752;28;20561;-79
2022/10/23 07:06:19;;;;;;;1.60;1.10;;;14.40;98.20;;;;;;5041547;28;20479;-79
2022/10/23 07:08:46;;;;;;;1.60;1.00;;;14.50;98.20;;;;;;5052188;28;20463;-79
2022/10/23 07:11:14;;;;;;;1.60;1.10;;;14.50;98.20;;;;;;5043532;28;20755;-79
2022/10/23 07:13:43;;;;;;;1.60;1.07;;;14.50;98.20;;;;;;5047201;28;21121;-79
2022/10/23 07:16:12;;;;;;;2.63;2.20;;;14.60;98.20;;;;;;5038133;28;20711;-78
2022/10/23 07:18:41;;;;;;;1.60;1.00;;;14.60;98.20;;;;;;5042889;28;20469;-80
2022/10/23 07:21:14;;;;;;;1.60;1.00;;;14.70;98.20;;;;;;5056324;28;20487;-80
2022/10/23 07:23:51;;;;;;;1.60;1.00;;;14.70;98.20;;;;;;5080558;28;21620;-80
2022/10/23 07:26:21;;;;;;;1.60;1.00;;;14.70;98.20;;;;;;5057896;28;20499;-80
2022/10/23 07:28:53;;;;;;;1.60;1.00;;;14.80;98.20;;;;;;5067203;28;21125;-80
2022/10/23 07:31:21;;;;;;;1.60;1.03;;;14.80;98.20;;;;;;5056879;28;21435;-80
2022/10/23 07:33:51;;;;;;;1.60;1.00;;;14.90;98.20;;;;;;5061617;28;20508;-80
2022/10/23 07:36:19;;;;;;;1.60;1.00;;;14.90;98.20;;;;;;5056667;28;20469;-78
2022/10/23 07:38:48;;;;;;;1.60;1.00;;;15.00;98.20;;;;;;5056744;28;20473;-80
2022/10/23 07:41:15;;;;;;;1.60;1.00;;;15.10;98.20;;;;;;5054040;28;20493;-80
2022/10/23 07:43:42;;;;;;;1.60;1.00;;;15.20;98.20;;;;;;5067340;28;20496;-79
2022/10/23 07:46:09;;;;;;;1.60;1.00;;;15.20;98.20;;;;;;5054194;28;20513;-80
2022/10/23 07:48:37;;;;;;;1.60;0.90;;;15.30;98.20;;;;;;5047339;28;20885;-79
2022/10/23 07:51:09;;;;;;;1.60;1.10;;;15.40;98.20;;;;;;5058448;28;20511;-78
2022/10/23 07:53:37;;;;;;;1.60;1.00;;;15.50;98.20;;;;;;5042976;28;20492;-79
2022/10/23 07:56:12;;;;;;;1.60;1.00;;;15.50;98.20;;;;;;5059130;28;20825;-79
2022/10/23 07:58:39;;;;;;;1.60;1.00;;;15.60;98.20;;;;;;5067617;28;20530;-79
2022/10/23 08:01:16;;;;;;;1.80;1.47;;;15.70;98.20;;;;;;5057272;28;20502;-76
2022/10/23 08:03:43;;;;;;;4.73;1.37;;;15.90;98.20;;;;;;5052916;28;20469;-78
2022/10/23 08:06:12;;;;;;;1.60;1.00;;;16.00;98.20;;;;;;5053034;28;20473;-79
2022/10/23 08:08:39;;;;;;;1.60;0.97;;;16.10;98.20;;;;;;5047601;28;20465;-78
2022/10/23 08:11:13;;;;;;;1.60;1.00;;;16.20;98.20;;;;;;5056055;28;20478;-78
2022/10/23 08:13:40;;;;;;;1.60;1.00;;;16.40;98.20;;;;;;5042016;28;20497;-79
2022/10/23 08:16:08;;;;;;;1.60;1.00;;;16.50;98.20;;;;;;5057763;28;21304;-78
2022/10/23 08:18:35;;;;;;;1.60;1.00;;;16.60;98.20;;;;;;5066719;28;20472;-78
2022/10/23 08:21:04;;;;;;;1.60;1.00;;;16.70;98.20;;;;;;5049100;28;20497;-78
2022/10/23 08:23:33;;;;;;;1.63;1.00;;;16.90;98.20;;;;;;5035357;28;21016;-76
2022/10/23 08:26:06;;;;;;;1.70;1.10;;;17.00;98.20;;;;;;5042024;28;20532;-77
2022/10/23 08:28:36;;;;;;;1.60;1.00;;;17.10;98.20;;;;;;5052522;28;20897;-76
2022/10/23 08:31:09;;;;;;;1.60;1.00;;;17.20;98.20;;;;;;5040382;28;20501;-79
2022/10/23 08:33:37;;;;;;;1.60;1.00;;;17.20;98.20;;;;;;5045654;28;20804;-76
2022/10/23 08:36:07;;;;;;;1.60;1.00;;;17.30;98.20;;;;;;5048780;28;20459;-76
2022/10/23 08:38:35;;;;;;;4.30;2.13;;;17.40;98.20;;;;;;5054203;28;20465;-75
2022/10/23 08:41:03;;;;;;;1.70;1.20;;;17.60;98.20;;;;;;5040196;28;20875;-77
2022/10/23 08:43:37;;;;;;;1.60;1.00;;;17.70;98.20;;;;;;5029310;28;20458;-77
2022/10/23 08:46:09;;;;;;;1.60;0.90;;;17.70;98.20;;;;;;5041194;28;20472;-77
2022/10/23 08:48:42;;;;;;;1.60;0.97;;;17.70;98.20;;;;;;5033486;28;20561;-77
2022/10/23 08:51:16;;;;;;;1.60;0.90;;;17.80;98.20;;;;;;5042256;28;20509;-77
2022/10/23 08:54:04;;;;;;;1.60;0.90;;;17.80;98.20;;;;;;5048324;28;20466;-77
2022/10/23 08:56:34;;;;;;;1.60;0.90;;;17.90;98.20;;;;;;5036430;28;20505;-76
2022/10/23 08:59:07;;;;;;;1.60;0.90;;;18.10;98.20;;;;;;5050776;28;20566;-77
2022/10/23 09:01:41;;;;;;;1.60;0.90;;;18.20;98.20;;;;;;5040453;28;20482;-77
2022/10/23 09:04:14;;;;;;;1.60;0.90;;;18.20;98.20;;;;;;5050363;28;20470;-77
2022/10/23 09:06:51;;;;;;;1.60;0.90;;;18.40;98.20;;;;;;5040238;28;20938;-77
2022/10/23 09:09:46;;;;;;;1.60;0.90;;;18.50;98.20;;;;;;5046466;28;20462;-77
2022/10/23 09:12:15;;;;;;;1.60;0.90;;;18.60;98.20;;;;;;5050293;28;21193;-77
2022/10/23 09:15:23;;;;;;;1.60;0.90;;;18.50;98.20;;;;;;5052091;28;20462;-77
2022/10/23 09:17:56;;;;;;;1.70;1.10;;;18.60;98.20;;;;;;5041578;28;20482;-76
2022/10/23 09:20:27;;;;;;;1.60;1.00;;;18.70;98.20;;;;;;5059115;28;20496;-77
2022/10/23 09:22:58;;;;;;;1.60;1.00;;;18.70;98.20;;;;;;5038153;28;20478;-77
2022/10/23 09:25:29;;;;;;;1.60;1.00;;;18.80;98.20;;;;;;5076393;28;20484;-77
2022/10/23 09:27:58;;;;;;;1.60;1.00;;;18.80;98.20;;;;;;5053263;28;20482;-78
2022/10/23 09:30:33;;;;;;;1.60;0.90;;;18.90;98.20;;;;;;5077609;28;20978;-76
2022/10/23 09:33:01;;;;;;;1.60;0.90;;;18.90;98.20;;;;;;5053570;28;20482;-76
2022/10/23 09:35:39;;;;;;;1.60;0.90;;;19.00;98.20;;;;;;5073314;28;21204;-77
2022/10/23 09:38:36;;;;;;;1.60;0.90;;;19.00;98.20;;;;;;5061826;28;21069;-77
2022/10/23 09:41:11;;;;;;;1.70;1.30;;;19.20;98.20;;;;;;5057916;28;20568;-77
2022/10/23 09:43:39;;;;;;;1.60;0.90;;;19.30;98.20;;;;;;5070117;28;20461;-76
2022/10/23 09:46:08;;;;;;;1.60;1.00;;;19.40;98.20;;;;;;5058310;28;20467;-75
2022/10/23 09:48:37;;;;;;;1.60;0.90;;;19.40;98.20;;;;;;5051099;28;20461;-76
2022/10/23 09:51:15;;;;;;;2.00;1.57;;;19.50;98.20;;;;;;5059239;28;20523;-77
2022/10/23 09:53:50;;;;;;;1.80;1.10;;;19.60;98.20;;;;;;5064062;28;20465;-77
2022/10/23 09:56:28;;;;;;;1.60;0.90;;;19.60;98.20;;;;;;5046600;28;21009;-76
2022/10/23 09:58:57;;;;;;;1.70;1.20;;;19.60;98.20;;;;;;5050708;28;20462;-76
2022/10/23 10:01:26;;;;;;;1.60;0.90;;;19.50;98.20;;;;;;5047248;28;20511;-75
2022/10/23 10:03:54;;;;;;;1.60;0.90;;;19.50;98.20;;;;;;5051028;28;20465;-76
2022/10/23 10:06:26;;;;;;;1.60;0.90;;;19.40;98.20;;;;;;5056768;28;20477;-76
2022/10/23 10:08:56;;;;;;;1.60;0.90;;;19.30;98.20;;;;;;5062602;28;20465;-76
2022/10/23 10:11:35;;;;;;;1.60;0.90;;;19.20;98.20;;;;;;5048302;28;20493;-76
2022/10/23 10:14:36;;;;;;;1.60;0.90;;;19.10;98.20;;;;;;5051834;28;20497;-76
2022/10/23 10:17:12;;;;;;;1.60;0.90;;;19.10;98.20;;;;;;5011003;28;20497;-77
2022/10/23 10:20:02;;;;;;;1.60;0.90;;;19.10;98.20;;;;;;5068011;28;20461;-76
2022/10/23 10:22:39;;;;;;;1.70;1.20;;;19.10;98.20;;;;;;5017871;28;20553;-76
2022/10/23 10:25:16;;;;;;;2.10;1.60;;;19.10;98.20;;;;;;5068095;28;20465;-77
2022/10/23 10:27:59;;;;;;;1.60;0.90;;;19.00;98.20;;;;;;5056532;28;20510;-75
2022/10/23 10:30:35;;;;;;;1.57;0.90;;;19.00;98.20;;;;;;5067272;28;20555;-76
2022/10/23 10:33:10;;;;;;;1.60;0.90;;;19.00;98.20;;;;;;5054551;28;20500;-77
2022/10/23 10:36:03;;;;;;;1.60;0.90;;;19.00;98.20;;;;;;5068212;28;20457;-76
2022/10/23 10:38:47;;;;;;;1.60;1.00;;;19.00;98.20;;;;;;5049978;28;20477;-78
2022/10/23 10:41:38;;;;;;;1.70;1.10;;;19.00;98.20;;;;;;5054662;28;20484;-76
2022/10/23 10:44:22;;;;;;;1.50;0.90;;;19.00;98.20;;;;;;5063189;28;20512;-77
2022/10/23 10:46:57;;;;;;;1.60;1.20;;;19.10;98.20;;;;;;5055167;28;20476;-77
2022/10/23 10:49:36;;;;;;;1.60;1.00;;;19.10;98.20;;;;;;5066952;28;20560;-77
2022/10/23 10:52:13;;;;;;;1.60;0.93;;;19.10;98.20;;;;;;5048086;28;20834;-76
2022/10/23 10:54:51;;;;;;;1.60;1.00;;;19.10;98.20;;;;;;5064055;28;20467;-74
2022/10/23 10:57:30;;;;;;;1.60;0.90;;;19.10;98.20;;;;;;5052549;28;20499;-76
2022/10/23 11:00:02;;;;;;;1.60;0.90;;;19.10;98.20;;;;;;5066824;28;20473;-76
2022/10/23 11:02:33;;;;;;;1.53;0.97;;;19.10;98.20;;;;;;5034343;28;20503;-76
2022/10/23 11:05:12;;;;;;;1.57;0.90;;;19.10;98.20;;;;;;5061543;28;20485;-76
2022/10/23 11:07:46;;;;;;;1.60;1.00;;;19.20;98.20;;;;;;5046178;28;20478;-76
2022/10/23 11:10:16;;;;;;;1.60;0.90;;;19.10;98.20;;;;;;5064530;28;20513;-76
2022/10/23 11:12:46;;;;;;;1.50;0.90;;;19.10;98.20;;;;;;5027106;28;20490;-76
2022/10/23 11:15:18;;;;;;;1.60;1.00;;;19.10;98.20;;;;;;5063603;28;20516;-76
2022/10/23 11:17:48;;;;;;;1.60;0.90;;;19.10;98.20;;;;;;5052040;28;20477;-75
2022/10/23 11:20:37;;;;;;;1.60;0.90;;;19.10;98.20;;;;;;5063068;28;21036;-76
2022/10/23 11:23:24;;;;;;;1.60;0.90;;;19.00;98.20;;;;;;5026701;28;20494;-77
2022/10/23 11:26:07;;;;;;;1.50;0.90;;;19.00;98.20;;;;;;5017426;28;20469;-77
2022/10/23 11:28:49;;;;;;;1.60;1.00;;;18.90;98.20;;;;;;5040449;28;20469;-76
2022/10/23 11:31:35;;;;;;;1.60;0.90;;;18.80;98.20;;;;;;5050334;28;20953;-75
2022/10/23 11:34:43;;;;;;;1.60;0.90;;;18.70;98.20;;;;;;5061472;28;20961;-76
2022/10/23 11:37:16;;;;;;;1.60;0.90;;;18.60;98.20;;;;;;5050697;28;20501;-78
2022/10/23 11:39:59;;;;;;;1.57;0.90;;;18.60;98.20;;;;;;5062138;28;20845;-77
2022/10/23 11:42:33;;;;;;;1.60;0.90;;;18.50;98.20;;;;;;5046415;28;20661;-76
2022/10/23 11:45:01;;;;;;;1.60;1.00;;;18.50;98.20;;;;;;5061982;28;20467;-76
2022/10/23 11:47:35;;;;;;;1.60;0.90;;;18.40;98.20;;;;;;5031727;28;20873;-76
2022/10/23 11:50:25;;;;;;;1.60;1.00;;;18.50;98.20;;;;;;5065529;28;20460;-76
2022/10/23 11:53:04;;;;;;;1.60;0.90;;;18.60;98.20;;;;;;5045275;28;20569;-77
2022/10/23 11:55:32;;;;;;;1.57;0.90;;;18.80;98.20;;;;;;5064695;28;20497;-77
2022/10/23 11:58:18;;;;;;;1.60;0.90;;;19.00;98.20;;;;;;5030337;28;20483;-76
2022/10/23 12:00:59;;;;;;;1.53;0.90;;;19.20;98.20;;;;;;5062428;28;20481;-77
2022/10/23 12:03:40;;;;;;;1.50;0.90;;;19.30;98.20;;;;;;5034294;28;20993;-75
2022/10/23 12:06:18;;;;;;;1.60;0.90;;;19.40;98.20;;;;;;5047878;28;20469;-76
2022/10/23 12:08:52;;;;;;;1.60;0.90;;;19.60;98.20;;;;;;5039659;28;20465;-76
2022/10/23 12:11:28;;;;;;;1.60;0.90;;;19.70;98.20;;;;;;5052016;28;20473;-77
2022/10/23 12:13:57;;;;;;;1.60;1.00;;;19.80;98.20;;;;;;5054371;28;20472;-75
2022/10/23 12:16:35;;;;;;;1.60;0.90;;;19.70;98.20;;;;;;5049253;28;20488;-76
2022/10/23 12:19:20;;;;;;;1.50;0.90;;;19.80;98.20;;;;;;5060939;28;20556;-77
2022/10/23 12:24:41;;;;;;;1.57;0.90;;;19.80;98.20;;;;;;5038368;28;20482;-75
2022/10/23 12:27:28;;;;;;;1.57;1.00;;;19.70;98.20;;;;;;5025964;28;20520;-75
2022/10/23 12:30:04;;;;;;;1.53;0.90;;;19.70;98.20;;;;;;5036514;28;21377;-75
2022/10/23 12:32:45;;;;;;;1.60;0.90;;;19.70;98.20;;;;;;5026788;28;20958;-76
2022/10/23 12:35:51;;;;;;;1.53;0.90;;;19.80;98.20;;;;;;5039477;28;20462;-76
2022/10/23 12:38:22;;;;;;;1.57;0.80;;;19.80;98.20;;;;;;4949974;28;21058;-76
2022/10/23 12:40:53;;;;;;;1.57;0.90;;;19.80;98.20;;;;;;5027292;28;21126;-76
2022/10/23 12:43:27;;;;;;;1.70;1.33;;;19.80;98.20;;;;;;5021198;28;20492;-76
2022/10/23 12:45:56;;;;;;;1.67;1.20;;;19.70;98.20;;;;;;5028084;28;20488;-76
2022/10/23 12:48:24;;;;;;;1.53;0.90;;;19.80;98.20;;;;;;5023609;28;20462;-75
2022/10/23 12:50:54;;;;;;;1.53;0.90;;;19.80;98.20;;;;;;5027855;28;20470;-75
2022/10/23 12:53:24;;;;;;;1.53;0.90;;;19.80;98.20;;;;;;5019513;28;20484;-75
2022/10/23 12:55:55;;;;;;;1.60;1.00;;;19.80;98.20;;;;;;5028798;28;20466;-76
2022/10/23 12:58:24;;;;;;;1.60;1.00;;;19.80;98.20;;;;;;5022018;28;20466;-75
2022/10/23 13:00:53;;;;;;;1.60;1.00;;;19.80;98.20;;;;;;5026325;28;20967;-76
2022/10/23 13:03:23;;;;;;;1.53;0.90;;;19.90;98.20;;;;;;5021340;28;20900;-76
2022/10/23 13:05:52;;;;;;;1.60;0.90;;;19.80;98.20;;;;;;5031888;28;20473;-76
2022/10/23 13:08:23;;;;;;;1.60;0.90;;;19.80;98.20;;;;;;5025426;28;20566;-75
2022/10/23 13:10:51;;;;;;;1.57;0.90;;;19.80;98.20;;;;;;5032971;28;20570;-76
2022/10/23 13:13:23;;;;;;;1.53;0.97;;;19.80;98.20;;;;;;5040570;28;20654;-75
2022/10/23 13:15:50;;;;;;;1.57;0.90;;;19.80;98.20;;;;;;5031724;28;20852;-76